Station Historical Data
Daily Summary for December 28, 2011 Units:  Metric    English   Both
« Previous Day
Next Day »
Daily Weekly Monthly Yearly Custom
  High: Low: Average:
Temperature: 9.3 °C -1.1 °C 4 °C
Dew Point: 2.7 °C -1.6 °C 0.8 °C
Humidity: 97% 56% 81%
Wind Speed: 12.9km/h 0km/h 2.1km/h
Wind Gust: 16.1km/h - -
Wind- - SW
Pressure: 1022.2 hPa 1018.2 hPa -
Precipitation: 0 mm    
Historical Graphs
 
 
Tabular Data for December 28, 2011
Time Temperature Dew Point Pressure Wind Wind Speed Wind Gust Humidity Rainfall Rate (Hourly) Conditions
00:00 4.5 °C 2.2 °C 1018.2 hPa NW 1.6 km/h 3.2 km/h 85% 0 mm
00:01 4.5 °C 2.2 °C 1018.2 hPa NW 3.2 km/h 3.2 km/h 85% 0 mm
00:02 4.5 °C 2.2 °C 1018.5 hPa NW 1.6 km/h 3.2 km/h 85% 0 mm
00:07 4.4 °C 2.1 °C 1018.5 hPa NW 1.6 km/h 3.2 km/h 85% 0 mm
00:12 4.3 °C 2.2 °C 1018.5 hPa NW 3.2 km/h 4.8 km/h 86% 0 mm
00:17 4.3 °C 2.2 °C 1018.5 hPa NW 3.2 km/h 4.8 km/h 86% 0 mm
00:22 4.3 °C 2.2 °C 1018.5 hPa NW 1.6 km/h 4.8 km/h 86% 0 mm
00:27 4.2 °C 2.1 °C 1018.5 hPa WNW 1.6 km/h 3.2 km/h 86% 0 mm
00:32 3.9 °C 2 °C 1018.8 hPa West 1.6 km/h 1.6 km/h 87% 0 mm
00:37 3.8 °C 2.1 °C 1018.5 hPa Calm   1.6 km/h 88% 0 mm
00:42 3.7 °C 1.9 °C 1018.5 hPa NW 1.6 km/h 1.6 km/h 88% 0 mm
00:47 3.8 °C 2 °C 1018.5 hPa NW 1.6 km/h 3.2 km/h 88% 0 mm
00:52 3.7 °C 2.1 °C 1018.5 hPa NW 1.6 km/h 1.6 km/h 89% 0 mm
00:57 3.6 °C 1.8 °C 1018.5 hPa Calm     88% 0 mm
01:02 3.5 °C 1.8 °C 1018.5 hPa Calm   1.6 km/h 89% 0 mm
01:07 3.3 °C 1.7 °C 1018.5 hPa Calm     89% 0 mm
01:12 3.1 °C 1.6 °C 1018.8 hPa Calm     90% 0 mm
01:17 2.9 °C 1.6 °C 1018.5 hPa Calm     91% 0 mm
01:22 2.6 °C 1.1 °C 1018.5 hPa Calm     90% 0 mm
01:27 2.3 °C 1 °C 1018.5 hPa Calm     91% 0 mm
01:32 2 °C 0.7 °C 1018.5 hPa Calm     91% 0 mm
01:37 2 °C 1.1 °C 1018.5 hPa Calm     94% 0 mm
01:42 2.3 °C 1.4 °C 1018.5 hPa Calm     94% 0 mm
01:47 2.2 °C 1.2 °C 1018.5 hPa Calm     93% 0 mm
01:52 2 °C 1 °C 1018.5 hPa Calm     93% 0 mm
01:57 1.9 °C 1 °C 1018.8 hPa Calm     94% 0 mm
02:02 1.7 °C 0.8 °C 1018.5 hPa Calm     94% 0 mm
02:07 1.7 °C 0.8 °C 1018.5 hPa SSE 1.6 km/h 1.6 km/h 94% 0 mm
02:12 1.7 °C 1 °C 1018.8 hPa Calm   1.6 km/h 95% 0 mm
02:17 1.7 °C 1 °C 1018.8 hPa Calm     95% 0 mm
02:22 1.7 °C 1 °C 1018.8 hPa Calm     95% 0 mm
02:28 1.6 °C 0.9 °C 1018.8 hPa Calm     95% 0 mm
02:33 1.6 °C 0.8 °C 1018.8 hPa Calm     95% 0 mm
02:38 1.6 °C 0.8 °C 1018.8 hPa Calm     95% 0 mm
02:43 1.4 °C 0.7 °C 1018.8 hPa Calm     95% 0 mm
02:48 1.5 °C 0.9 °C 1019.2 hPa Calm     96% 0 mm
02:53 1.4 °C 0.9 °C 1019.2 hPa Calm     96% 0 mm
02:58 1.3 °C 0.8 °C 1019.2 hPa Calm     96% 0 mm
03:03 1.3 °C 0.7 °C 1019.2 hPa Calm     96% 0 mm
03:08 1.2 °C 0.6 °C 1019.2 hPa Calm     96% 0 mm
03:13 1.1 °C 0.6 °C 1019.5 hPa Calm     96% 0 mm
03:18 1.1 °C 0.5 °C 1019.5 hPa Calm     96% 0 mm
03:23 0.9 °C 0.4 °C 1019.2 hPa Calm     96% 0 mm
03:28 0.9 °C 0.3 °C 1019.2 hPa Calm     96% 0 mm
03:33 0.8 °C 0.2 °C 1019.2 hPa Calm     96% 0 mm
03:38 0.7 °C 0.2 °C 1019.5 hPa Calm     96% 0 mm
03:43 0.7 °C 0.1 °C 1019.5 hPa Calm     96% 0 mm
03:48 0.6 °C 0 °C 1019.5 hPa Calm     96% 0 mm
03:53 0.4 °C 0 °C 1019.5 hPa Calm     97% 0 mm
03:58 0.4 °C 0 °C 1019.5 hPa Calm     97% 0 mm
04:03 0.4 °C -0.1 °C 1019.5 hPa Calm     97% 0 mm
04:08 0.5 °C 0.1 °C 1019.5 hPa Calm     97% 0 mm
04:13 0.5 °C 0.1 °C 1019.5 hPa Calm     97% 0 mm
04:18 0.6 °C 0.1 °C 1019.5 hPa Calm     97% 0 mm
04:23 0.5 °C 0.1 °C 1019.5 hPa Calm     97% 0 mm
04:28 0.6 °C 0.2 °C 1019.5 hPa WSW 1.6 km/h 1.6 km/h 97% 0 mm
04:33 0.6 °C 0.2 °C 1019.9 hPa Calm   1.6 km/h 97% 0 mm
04:38 0.6 °C 0.2 °C 1019.9 hPa WSW 1.6 km/h 1.6 km/h 97% 0 mm
04:43 0.5 °C 0.1 °C 1019.9 hPa Calm   1.6 km/h 97% 0 mm
04:48 0.4 °C 0 °C 1019.9 hPa West 1.6 km/h 1.6 km/h 97% 0 mm
04:53 0.4 °C -0.1 °C 1019.9 hPa Calm   3.2 km/h 97% 0 mm
04:58 0.3 °C -0.2 °C 1020.2 hPa Calm   1.6 km/h 97% 0 mm
05:03 0.2 °C -0.3 °C 1020.2 hPa Calm   1.6 km/h 97% 0 mm
05:08 0.1 °C -0.3 °C 1020.5 hPa WNW 3.2 km/h 3.2 km/h 97% 0 mm
05:13 0.1 °C -0.3 °C 1020.5 hPa WNW 3.2 km/h 3.2 km/h 97% 0 mm
05:18 0.1 °C -0.3 °C 1020.2 hPa WNW 1.6 km/h 3.2 km/h 97% 0 mm
05:23 0.2 °C -0.2 °C 1020.5 hPa WNW 1.6 km/h 3.2 km/h 97% 0 mm
05:28 0.2 °C -0.2 °C 1020.5 hPa NW 3.2 km/h 3.2 km/h 97% 0 mm
05:33 0.3 °C -0.2 °C 1020.5 hPa NW 3.2 km/h 3.2 km/h 97% 0 mm
05:38 0.3 °C -0.2 °C 1020.5 hPa WNW 3.2 km/h 4.8 km/h 97% 0 mm
05:43 0.3 °C -0.1 °C 1020.5 hPa NW 1.6 km/h 3.2 km/h 97% 0 mm
05:48 0.3 °C -0.1 °C 1020.5 hPa WNW 1.6 km/h 4.8 km/h 97% 0 mm
05:53 0.3 °C -0.2 °C 1020.5 hPa WNW 1.6 km/h 1.6 km/h 97% 0 mm
05:59 0.3 °C -0.1 °C 1020.5 hPa WNW 1.6 km/h 3.2 km/h 97% 0 mm
06:04 0.2 °C -0.2 °C 1020.9 hPa WNW 1.6 km/h 1.6 km/h 97% 0 mm
06:09 0.2 °C -0.3 °C 1020.9 hPa WNW 1.6 km/h 1.6 km/h 97% 0 mm
06:14 0.2 °C -0.3 °C 1020.9 hPa Calm     97% 0 mm
06:19 0.2 °C -0.3 °C 1020.5 hPa Calm     97% 0 mm
06:24 0.2 °C -0.3 °C 1020.9 hPa Calm     97% 0 mm
06:29 0.1 °C -0.3 °C 1020.9 hPa Calm     97% 0 mm
06:34 -0.1 °C -0.6 °C 1020.9 hPa Calm     97% 0 mm
06:39 -0.2 °C -0.6 °C 1020.9 hPa Calm     97% 0 mm
06:44 -0.3 °C -0.8 °C 1020.9 hPa Calm     97% 0 mm
06:49 -0.3 °C -0.8 °C 1020.9 hPa Calm     97% 0 mm
06:54 -0.3 °C -0.8 °C 1021.2 hPa Calm     97% 0 mm
06:59 -0.3 °C -0.8 °C 1021.2 hPa Calm     97% 0 mm
07:04 -0.4 °C -0.8 °C 1021.2 hPa Calm     97% 0 mm
07:09 -0.3 °C -0.8 °C 1020.9 hPa Calm     97% 0 mm
07:14 -0.4 °C -0.8 °C 1020.9 hPa Calm     97% 0 mm
07:19 -0.7 °C -1.1 °C 1020.9 hPa Calm     97% 0 mm
07:24 -0.7 °C -1.1 °C 1020.9 hPa Calm     97% 0 mm
07:29 -0.8 °C -1.2 °C 1020.9 hPa Calm     97% 0 mm
07:34 -0.9 °C -1.3 °C 1020.9 hPa Calm     97% 0 mm
07:39 -1.1 °C -1.6 °C 1020.5 hPa Calm     97% 0 mm
07:44 -1.1 °C -1.4 °C 1020.5 hPa Calm     97% 0 mm
07:49 -0.9 °C -1.3 °C 1020.5 hPa Calm     97% 0 mm
07:54 -0.8 °C -1.2 °C 1020.9 hPa Calm     97% 0 mm
07:59 -0.8 °C -1.2 °C 1020.9 hPa Calm     97% 0 mm
08:04 -0.7 °C -1.1 °C 1020.5 hPa Calm     97% 0 mm
08:09 -0.6 °C -1 °C 1020.5 hPa Calm     97% 0 mm
08:14 -0.4 °C -0.8 °C 1020.5 hPa Calm     97% 0 mm
08:19 -0.1 °C -0.6 °C 1020.5 hPa Calm     97% 0 mm
08:24 0.1 °C -0.3 °C 1020.9 hPa Calm     97% 0 mm
08:29 0.2 °C -0.2 °C 1020.9 hPa Calm     97% 0 mm
08:34 0.7 °C 0.2 °C 1020.9 hPa Calm     97% 0 mm
08:39 1.1 °C 0.6 °C 1020.5 hPa Calm     97% 0 mm
08:44 1.2 °C 0.7 °C 1020.9 hPa Calm     97% 0 mm
08:49 1.6 °C 1.1 °C 1020.9 hPa Calm     97% 0 mm
08:54 2.1 °C 1.7 °C 1020.9 hPa Calm     97% 0 mm
08:59 2.6 °C 2.2 °C 1020.9 hPa Calm     97% 0 mm
09:04 2.2 °C 1.8 °C 1021.2 hPa Calm   1.6 km/h 97% 0 mm
09:09 2.3 °C 1.7 °C 1021.2 hPa Calm     96% 0 mm
09:14 2 °C 1.3 °C 1021.2 hPa Calm     95% 0 mm
09:19 2.1 °C 1.6 °C 1021.2 hPa Calm     96% 0 mm
09:25 2.2 °C 1.6 °C 1021.2 hPa Calm     96% 0 mm
09:30 2.3 °C 1.8 °C 1021.2 hPa Calm     96% 0 mm
09:35 2.3 °C 1.6 °C 1021.6 hPa SW 1.6 km/h 1.6 km/h 95% 0 mm
09:40 2.2 °C 1.3 °C 1021.6 hPa WSW 1.6 km/h 1.6 km/h 94% 0 mm
09:45 2.3 °C 1.4 °C 1021.6 hPa Calm   1.6 km/h 94% 0 mm
09:50 2.5 °C 1.6 °C 1021.6 hPa Calm   1.6 km/h 94% 0 mm
09:55 2.6 °C 1.6 °C 1021.9 hPa Calm   3.2 km/h 93% 0 mm
10:00 2.8 °C 1.8 °C 1021.9 hPa WSW 1.6 km/h 3.2 km/h 93% 0 mm
10:05 3 °C 1.8 °C 1021.9 hPa Calm   3.2 km/h 92% 0 mm
10:10 3.4 °C 2.2 °C 1021.9 hPa Calm   1.6 km/h 92% 0 mm
10:15 3.7 °C 2.2 °C 1021.9 hPa Calm   3.2 km/h 90% 0 mm
10:20 3.9 °C 2.4 °C 1021.9 hPa Calm   3.2 km/h 90% 0 mm
10:25 4.1 °C 2.4 °C 1021.9 hPa West 1.6 km/h 3.2 km/h 89% 0 mm
10:30 4.4 °C 2.7 °C 1021.9 hPa South 1.6 km/h 3.2 km/h 89% 0 mm
10:35 4.7 °C 2.5 °C 1021.9 hPa SSW 1.6 km/h 3.2 km/h 86% 0 mm
10:40 4.8 °C 2.1 °C 1022.2 hPa West 3.2 km/h 4.8 km/h 83% 0 mm
10:45 4.9 °C 2.1 °C 1022.2 hPa WSW 3.2 km/h 3.2 km/h 82% 0 mm
10:50 5.1 °C 1.8 °C 1022.2 hPa West 3.2 km/h 3.2 km/h 79% 0 mm
10:56 5.3 °C 1.9 °C 1022.2 hPa West 1.6 km/h 4.8 km/h 79% 0 mm
11:01 5.5 °C 2.3 °C 1021.9 hPa WSW 3.2 km/h 4.8 km/h 80% 0 mm
11:06 5.7 °C 2.2 °C 1021.9 hPa SW 6.4 km/h 6.4 km/h 78% 0 mm
11:11 5.9 °C 2.2 °C 1021.9 hPa SW 4.8 km/h 6.4 km/h 77% 0 mm
11:16 6.1 °C 1.9 °C 1021.9 hPa SW 9.7 km/h 9.7 km/h 75% 0 mm
11:21 6.2 °C 1.7 °C 1021.6 hPa SW 6.4 km/h 8 km/h 73% 0 mm
11:26 6.3 °C 1.4 °C 1021.6 hPa SW 9.7 km/h 9.7 km/h 71% 0 mm
11:31 6.2 °C 1.6 °C 1021.6 hPa SSW 6.4 km/h 9.7 km/h 72% 0 mm
11:36 6.4 °C 1.8 °C 1021.6 hPa SW 4.8 km/h 9.7 km/h 72% 0 mm
11:41 6.6 °C 1.9 °C 1021.6 hPa West 6.4 km/h 8 km/h 72% 0 mm
11:46 6.5 °C 1.4 °C 1021.2 hPa WSW 3.2 km/h 8 km/h 70% 0 mm
11:51 6.5 °C 1.8 °C 1021.2 hPa SSE 3.2 km/h 6.4 km/h 72% 0 mm
11:56 6.8 °C 1.9 °C 1020.9 hPa SW 4.8 km/h 9.7 km/h 71% 0 mm
12:01 6.8 °C 1.6 °C 1020.9 hPa WNW 6.4 km/h 6.4 km/h 69% 0 mm
12:06 6.9 °C 1.8 °C 1020.9 hPa South 6.4 km/h 9.7 km/h 70% 0 mm
12:11 7.2 °C 2.3 °C 1020.9 hPa SSW 4.8 km/h 11.3 km/h 71% 0 mm
12:16 7.3 °C 2.4 °C 1020.9 hPa South 6.4 km/h 14.5 km/h 71% 0 mm
12:21 7.3 °C 1.8 °C 1020.5 hPa SW 8 km/h 14.5 km/h 68% 0 mm
12:26 7.3 °C 2.4 °C 1020.2 hPa SW 6.4 km/h 6.4 km/h 71% 0 mm
12:31 7.4 °C 2.1 °C 1020.2 hPa SSW 6.4 km/h 9.7 km/h 69% 0 mm
12:36 7.5 °C 1.6 °C 1020.2 hPa SSW 3.2 km/h 8 km/h 66% 0 mm
12:41 7.6 °C 1.8 °C 1020.2 hPa West 8 km/h 14.5 km/h 67% 0 mm
12:46 7.6 °C 1.9 °C 1020.2 hPa WSW 9.7 km/h 11.3 km/h 67% 0 mm
12:51 7.7 °C 1.3 °C 1020.2 hPa SSW 6.4 km/h 9.7 km/h 64% 0 mm
12:56 7.8 °C 1.4 °C 1019.9 hPa WSW 9.7 km/h 9.7 km/h 64% 0 mm
13:01 7.9 °C 2.2 °C 1019.9 hPa SSW 4.8 km/h 11.3 km/h 67% 0 mm
13:06 8.1 °C 1.7 °C 1019.5 hPa South 6.4 km/h 9.7 km/h 64% 0 mm
13:11 8.3 °C 1.3 °C 1019.5 hPa WSW 6.4 km/h 8 km/h 61% 0 mm
13:16 8.3 °C 1.9 °C 1019.5 hPa SW 8 km/h 11.3 km/h 64% 0 mm
13:22 8.6 °C 1.9 °C 1019.5 hPa WSW 8 km/h 8 km/h 63% 0 mm
13:27 8.5 °C 0.7 °C 1019.5 hPa WSW 12.9 km/h 16.1 km/h 58% 0 mm
13:32 8.3 °C 0.6 °C 1019.5 hPa WSW 4.8 km/h 11.3 km/h 58% 0 mm
13:37 8.5 °C 1.7 °C 1019.5 hPa SW 9.7 km/h 9.7 km/h 62% 0 mm
13:42 8.6 °C 1 °C 1019.5 hPa SW 6.4 km/h 8 km/h 59% 0 mm
13:47 8.7 °C 1.2 °C 1019.5 hPa WSW 3.2 km/h 6.4 km/h 59% 0 mm
13:52 9 °C 1.7 °C 1019.2 hPa West 6.4 km/h 11.3 km/h 60% 0 mm
13:57 8.9 °C 1.4 °C 1019.2 hPa West 9.7 km/h 9.7 km/h 59% 0 mm
14:02 8.7 °C 1.2 °C 1019.2 hPa SSW 3.2 km/h 8 km/h 59% 0 mm
14:07 8.8 °C 1.7 °C 1019.2 hPa SW 4.8 km/h 14.5 km/h 61% 0 mm
14:12 8.9 °C 1.8 °C 1019.2 hPa SSW 8 km/h 12.9 km/h 61% 0 mm
14:17 9 °C 1.9 °C 1019.2 hPa WSW 8 km/h 12.9 km/h 61% 0 mm
14:22 9.1 °C 1.6 °C 1019.2 hPa West 4.8 km/h 12.9 km/h 59% 0 mm
14:27 9 °C 1.2 °C 1019.2 hPa WSW 1.6 km/h 9.7 km/h 58% 0 mm
14:32 9.1 °C 1.7 °C 1019.2 hPa WSW 6.4 km/h 11.3 km/h 60% 0 mm
14:37 8.9 °C 1.6 °C 1019.2 hPa WSW 8 km/h 11.3 km/h 60% 0 mm
14:42 8.9 °C 0.8 °C 1018.8 hPa South 3.2 km/h 8 km/h 57% 0 mm
14:47 9.1 °C 1.2 °C 1018.8 hPa SSW 4.8 km/h 4.8 km/h 58% 0 mm
14:52 9.3 °C 1.7 °C 1018.8 hPa WSW 8 km/h 11.3 km/h 59% 0 mm
14:57 9.1 °C 1.3 °C 1018.8 hPa SSW 3.2 km/h 9.7 km/h 58% 0 mm
15:02 9.1 °C 1.5 °C 1018.8 hPa WSW 1.6 km/h 11.3 km/h 59% 0 mm
15:07 9 °C 1.4 °C 1018.8 hPa SW 8 km/h 8 km/h 59% 0 mm
15:12 8.9 °C 1.8 °C 1018.8 hPa WSW 9.7 km/h 11.3 km/h 61% 0 mm
15:18 8.8 °C 1.9 °C 1018.8 hPa West 1.6 km/h 6.4 km/h 62% 0 mm
15:23 8.7 °C 1.2 °C 1018.8 hPa WSW 3.2 km/h 8 km/h 59% 0 mm
15:28 8.7 °C 1.1 °C 1018.5 hPa SSW 3.2 km/h 8 km/h 59% 0 mm
15:33 8.7 °C 1.3 °C 1018.5 hPa SW 1.6 km/h 8 km/h 60% 0 mm
15:38 8.7 °C 1.8 °C 1018.8 hPa WSW 3.2 km/h 6.4 km/h 62% 0 mm
15:43 8.8 °C 1.9 °C 1018.8 hPa SW 8 km/h 9.7 km/h 62% 0 mm
15:48 9 °C 2.1 °C 1018.8 hPa SW 8 km/h 8 km/h 62% 0 mm
15:53 9.1 °C 1.9 °C 1018.8 hPa SW 3.2 km/h 6.4 km/h 61% 0 mm
15:58 9 °C 1.9 °C 1018.8 hPa SW 6.4 km/h 9.7 km/h 61% 0 mm
16:03 8.8 °C 1.9 °C 1018.8 hPa SW 3.2 km/h 8 km/h 62% 0 mm
16:08 8.8 °C 1.9 °C 1018.8 hPa SW 3.2 km/h 9.7 km/h 62% 0 mm
16:13 8.8 °C 1.9 °C 1018.8 hPa SW 4.8 km/h 8 km/h 62% 0 mm
16:18 8.8 °C 2.1 °C 1019.2 hPa SSW 4.8 km/h 9.7 km/h 63% 0 mm
16:23 8.8 °C 1.9 °C 1019.2 hPa SSW 3.2 km/h 9.7 km/h 62% 0 mm
16:28 8.9 °C 1.6 °C 1019.2 hPa South 11.3 km/h 11.3 km/h 60% 0 mm
16:33 9.1 °C 1.8 °C 1019.2 hPa SSW 3.2 km/h 9.7 km/h 60% 0 mm
16:38 9.2 °C 1.8 °C 1019.2 hPa SW 8 km/h 8 km/h 60% 0 mm
16:43 9.1 °C 1.2 °C 1019.2 hPa SSW 4.8 km/h 12.9 km/h 58% 0 mm
16:48 9.2 °C 1.4 °C 1019.2 hPa South 3.2 km/h 8 km/h 58% 0 mm
16:53 9.3 °C 1 °C 1019.2 hPa SW 6.4 km/h 11.3 km/h 56% 0 mm
16:58 9.2 °C 0.9 °C 1019.2 hPa SW 8 km/h 12.9 km/h 56% 0 mm
17:03 9.2 °C 1.3 °C 1019.2 hPa SSW 4.8 km/h 9.7 km/h 58% 0 mm
17:08 9.2 °C 1.3 °C 1019.2 hPa SW 8 km/h 9.7 km/h 58% 0 mm
17:13 9.1 °C 1.7 °C 1019.2 hPa SSE 3.2 km/h 6.4 km/h 60% 0 mm
17:18 9 °C 1.7 °C 1019.2 hPa SW 3.2 km/h 3.2 km/h 60% 0 mm
17:23 8.8 °C 1.5 °C 1019.2 hPa WSW 3.2 km/h 4.8 km/h 60% 0 mm
17:28 8.6 °C 1.3 °C 1019.2 hPa WSW 3.2 km/h 4.8 km/h 60% 0 mm
17:33 8.4 °C 0.8 °C 1019.5 hPa WSW 3.2 km/h 4.8 km/h 59% 0 mm
17:38 8.1 °C 0.8 °C 1019.5 hPa SW 1.6 km/h 3.2 km/h 60% 0 mm
17:43 7.7 °C 0.8 °C 1019.5 hPa SW 3.2 km/h 3.2 km/h 62% 0 mm
17:48 7.3 °C 0.8 °C 1019.5 hPa SW 3.2 km/h 3.2 km/h 63% 0 mm
17:53 7.1 °C 0.7 °C 1019.5 hPa SW 1.6 km/h 3.2 km/h 64% 0 mm
17:58 6.8 °C 0.7 °C 1019.5 hPa South 1.6 km/h 1.6 km/h 65% 0 mm
18:03 6.6 °C 0.5 °C 1019.5 hPa SSE 1.6 km/h 1.6 km/h 65% 0 mm
18:09 6.5 °C 0.6 °C 1019.5 hPa SSE 3.2 km/h 3.2 km/h 66% 0 mm
18:14 6.3 °C 0.8 °C 1019.5 hPa SE 3.2 km/h 3.2 km/h 68% 0 mm
18:19 6.2 °C 0.9 °C 1019.5 hPa SSE 1.6 km/h 3.2 km/h 69% 0 mm
18:24 6.1 °C 0.8 °C 1019.5 hPa SSE 3.2 km/h 3.2 km/h 69% 0 mm
18:29 6 °C 0.7 °C 1019.5 hPa SE 1.6 km/h 3.2 km/h 69% 0 mm
18:34 5.9 °C 0.9 °C 1019.5 hPa SE 1.6 km/h 3.2 km/h 70% 0 mm
18:39 5.8 °C 0.8 °C 1019.5 hPa SE 1.6 km/h 3.2 km/h 70% 0 mm
18:44 5.7 °C 0.7 °C 1019.5 hPa SE 1.6 km/h 1.6 km/h 70% 0 mm
18:49 5.7 °C 0.8 °C 1019.5 hPa SE 1.6 km/h 1.6 km/h 71% 0 mm
18:54 5.7 °C 0.8 °C 1019.5 hPa SE 1.6 km/h 3.2 km/h 71% 0 mm
18:59 5.7 °C 0.8 °C 1019.5 hPa SE 1.6 km/h 3.2 km/h 71% 0 mm
19:04 5.6 °C 0.7 °C 1019.5 hPa SE 1.6 km/h 3.2 km/h 71% 0 mm
19:09 5.6 °C 0.7 °C 1019.5 hPa Calm   1.6 km/h 71% 0 mm
19:14 5.5 °C 0.7 °C 1019.5 hPa Calm   1.6 km/h 71% 0 mm
19:19 5.3 °C 0.5 °C 1019.5 hPa Calm     71% 0 mm
19:24 4.9 °C 0.3 °C 1019.5 hPa NNE 3.2 km/h 3.2 km/h 72% 0 mm
19:29 4.7 °C 0.4 °C 1019.5 hPa Calm     74% 0 mm
19:34 4.6 °C 0.6 °C 1019.5 hPa NNE 1.6 km/h 1.6 km/h 75% 0 mm
19:39 4.7 °C 0.4 °C 1019.5 hPa Calm   1.6 km/h 74% 0 mm
19:44 4.7 °C 0.6 °C 1019.5 hPa NNE 1.6 km/h 1.6 km/h 75% 0 mm
19:49 4.7 °C 0.4 °C 1019.5 hPa Calm   1.6 km/h 74% 0 mm
19:54 4.6 °C 0.4 °C 1019.5 hPa Calm     74% 0 mm
19:59 4.8 °C 0.6 °C 1019.5 hPa Calm     74% 0 mm
20:04 4.7 °C 0.5 °C 1019.5 hPa Calm     74% 0 mm
20:09 4.4 °C 0.3 °C 1019.5 hPa SE 1.6 km/h 3.2 km/h 75% 0 mm
20:14 4.2 °C 0.3 °C 1019.5 hPa Calm   1.6 km/h 76% 0 mm
20:19 4.1 °C 0.2 °C 1019.5 hPa Calm   1.6 km/h 76% 0 mm
20:24 4.1 °C 0.3 °C 1019.5 hPa Calm     76% 0 mm
20:29 3.9 °C 0.1 °C 1019.5 hPa Calm     76% 0 mm
20:34 3.7 °C 0.2 °C 1019.5 hPa Calm     78% 0 mm
20:39 3.3 °C 0 °C 1019.5 hPa Calm     79% 0 mm
20:44 2.9 °C -0.2 °C 1019.5 hPa Calm     80% 0 mm
20:49 2.6 °C -0.2 °C 1019.5 hPa Calm     82% 0 mm
20:54 2.4 °C -0.2 °C 1019.5 hPa SE 1.6 km/h 1.6 km/h 83% 0 mm
20:59 2.6 °C -0.1 °C 1019.5 hPa SE 1.6 km/h 1.6 km/h 83% 0 mm
21:04 2.7 °C 0.1 °C 1019.5 hPa SE 1.6 km/h 3.2 km/h 83% 0 mm
21:09 2.7 °C -0.1 °C 1019.5 hPa Calm     82% 0 mm
21:14 2.8 °C 0 °C 1019.5 hPa Calm     82% 0 mm
21:19 2.6 °C -0.2 °C 1019.5 hPa Calm     82% 0 mm
21:24 2.2 °C -0.6 °C 1019.2 hPa Calm     82% 0 mm
21:29 1.7 °C -1.1 °C 1019.2 hPa Calm     82% 0 mm
21:34 1.3 °C -1.1 °C 1019.2 hPa Calm     84% 0 mm
21:40 1.4 °C -0.6 °C 1019.2 hPa Calm     87% 0 mm
21:45 1.7 °C -0.3 °C 1019.2 hPa Calm     87% 0 mm
21:50 2.1 °C -0.1 °C 1019.2 hPa Calm   1.6 km/h 86% 0 mm
21:55 2.6 °C 0 °C 1019.2 hPa Calm   1.6 km/h 83% 0 mm
22:00 3.1 °C 0.2 °C 1019.2 hPa SE 1.6 km/h 1.6 km/h 81% 0 mm
22:05 3.4 °C 0.1 °C 1019.2 hPa Calm   1.6 km/h 79% 0 mm
22:10 3.6 °C 0.1 °C 1019.2 hPa Calm   1.6 km/h 78% 0 mm
22:15 3.7 °C 0.2 °C 1019.2 hPa Calm   1.6 km/h 78% 0 mm
22:20 3.8 °C 0.1 °C 1019.2 hPa Calm   1.6 km/h 77% 0 mm
22:25 3.8 °C 0.1 °C 1019.2 hPa Calm     77% 0 mm
22:30 3.8 °C 0.1 °C 1019.2 hPa ESE 1.6 km/h 1.6 km/h 77% 0 mm
22:35 3.8 °C -0.1 °C 1019.2 hPa Calm   1.6 km/h 76% 0 mm
22:40 3.7 °C 0 °C 1019.2 hPa Calm   1.6 km/h 77% 0 mm
22:45 3.6 °C -0.1 °C 1018.8 hPa ESE 1.6 km/h 1.6 km/h 77% 0 mm
22:50 3.3 °C -0.3 °C 1018.8 hPa Calm   1.6 km/h 77% 0 mm
22:55 3.1 °C -0.2 °C 1018.8 hPa SE 3.2 km/h 3.2 km/h 79% 0 mm
23:00 2.9 °C -0.3 °C 1018.8 hPa SE 1.6 km/h 1.6 km/h 79% 0 mm
23:05 2.7 °C -0.4 °C 1018.8 hPa SE 1.6 km/h 1.6 km/h 80% 0 mm
23:10 2.6 °C -0.3 °C 1018.8 hPa Calm   1.6 km/h 81% 0 mm
23:15 2.6 °C -0.2 °C 1018.8 hPa Calm   1.6 km/h 82% 0 mm
23:20 2.7 °C -0.1 °C 1018.8 hPa Calm     82% 0 mm
23:25 2.7 °C -0.1 °C 1018.8 hPa Calm     82% 0 mm
23:30 2.7 °C -0.1 °C 1018.8 hPa Calm     82% 0 mm
23:35 2.7 °C -0.1 °C 1018.5 hPa SE 1.6 km/h 1.6 km/h 82% 0 mm
23:40 2.6 °C -0.3 °C 1018.5 hPa SE 1.6 km/h 1.6 km/h 81% 0 mm
23:45 2.5 °C -0.4 °C 1018.5 hPa Calm   1.6 km/h 81% 0 mm
23:46 2.5 °C -0.4 °C 1018.5 hPa SE 1.6 km/h 1.6 km/h 81% 0 mm
23:51 2.3 °C -0.4 °C 1018.5 hPa Calm   1.6 km/h 82% 0 mm
23:56 2.2 °C -0.3 °C 1018.5 hPa Calm   1.6 km/h 83% 0 mm
Compliments of Weather Underground